createdAt,value
2018-06-03T13:51:42.370Z,95274.28
2018-06-03T13:54:11.847Z,95275.27
2018-06-03T13:56:41.226Z,95277.34
2018-06-03T13:59:10.580Z,95273.33
2018-06-03T14:01:39.986Z,95277.52
2018-06-03T14:04:09.372Z,95270.79
2018-06-03T14:06:39.037Z,95277.99
2018-06-03T14:09:08.482Z,95269.45
2018-06-03T14:11:38.074Z,95271.00
2018-06-03T14:14:07.432Z,95271.70
2018-06-03T14:16:36.843Z,95269.43
2018-06-03T14:19:06.373Z,95272.09
2018-06-03T14:21:35.895Z,95260.19
2018-06-03T14:24:05.271Z,95265.54
2018-06-03T14:26:34.711Z,95255.23
2018-06-03T14:29:04.161Z,95259.38
2018-06-03T14:31:33.671Z,95259.75
2018-06-03T14:34:03.188Z,95258.36
2018-06-03T14:36:32.591Z,95257.03
2018-06-03T14:39:02.146Z,95251.86
2018-06-03T14:41:31.585Z,95255.35
2018-06-03T14:44:01.284Z,95249.17
2018-06-03T14:46:30.743Z,95242.56
2018-06-03T14:49:00.480Z,95237.37
2018-06-03T14:51:30.081Z,95232.63
2018-06-03T14:53:59.546Z,95231.28
2018-06-03T14:56:28.962Z,95233.38
2018-06-03T14:58:58.264Z,95229.11
2018-06-03T15:01:27.680Z,95228.05
2018-06-03T15:03:59.281Z,95219.72
2018-06-03T15:06:28.763Z,95214.50
2018-06-03T15:08:58.317Z,95212.95
2018-06-03T15:11:27.756Z,95212.95
2018-06-03T15:13:57.170Z,95212.23
2018-06-03T15:16:26.617Z,95219.27
2018-06-03T15:18:56.028Z,95215.39
2018-06-03T15:21:25.627Z,95212.31
2018-06-03T15:23:55.326Z,95213.27
2018-06-03T15:26:27.590Z,95208.25
2018-06-03T15:28:57.027Z,95203.03
2018-06-03T15:31:26.672Z,95196.05
2018-06-03T15:33:56.190Z,95196.63
2018-06-03T15:36:25.623Z,95194.13
2018-06-03T15:38:55.139Z,95196.80
2018-06-03T15:41:24.540Z,95188.72
2018-06-03T15:43:54.182Z,95189.17
2018-06-03T15:46:23.611Z,95186.28
2018-06-03T15:48:53.021Z,95185.00
2018-06-03T15:51:22.423Z,95189.81
2018-06-03T15:53:51.886Z,95189.17
2018-06-03T15:56:21.252Z,95195.85
2018-06-03T15:58:50.946Z,95188.94
2018-06-03T16:01:20.368Z,95184.03
2018-06-03T16:03:49.750Z,95176.72
2018-06-03T16:06:19.218Z,95176.61
2018-06-03T16:08:48.836Z,95173.25
2018-06-03T16:11:18.239Z,95173.60
2018-06-03T16:13:47.760Z,95169.55
2018-06-03T16:16:17.239Z,95165.85
2018-06-03T16:18:46.838Z,95162.80
2018-06-03T16:21:16.280Z,95164.58
2018-06-03T16:23:45.768Z,95162.93
2018-06-03T16:26:15.249Z,95158.86
2018-06-03T16:28:44.794Z,95154.39
2018-06-03T16:31:14.308Z,95156.45
2018-06-03T16:33:43.805Z,95153.14
2018-06-03T16:36:13.363Z,95149.97
2018-06-03T16:38:42.960Z,95153.14
2018-06-03T16:41:12.291Z,95150.70
2018-06-03T16:43:41.663Z,95150.20
2018-06-03T16:46:11.052Z,95155.30
2018-06-03T16:48:40.565Z,95157.25
2018-06-03T16:51:09.878Z,95158.31
2018-06-03T16:53:39.212Z,95155.25
2018-06-03T16:56:08.657Z,95156.48
2018-06-03T16:58:38.074Z,95148.97
2018-06-03T17:01:07.555Z,95152.45
2018-06-03T17:03:37.088Z,95149.28
2018-06-03T17:06:06.553Z,95149.49
2018-06-03T17:08:35.967Z,95144.77
2018-06-03T17:11:05.641Z,95148.11
2018-06-03T17:13:35.141Z,95152.73
2018-06-03T17:16:04.550Z,95143.02
2018-06-03T17:18:33.965Z,95145.87
2018-06-03T17:21:03.572Z,95133.75
2018-06-03T17:23:33.224Z,95138.05
2018-06-03T17:26:02.853Z,95140.53
2018-06-03T17:28:32.345Z,95135.30
2018-06-03T17:31:01.886Z,95133.06
2018-06-03T17:33:31.428Z,95133.86
2018-06-03T17:36:00.877Z,95133.86
2018-06-03T17:38:30.382Z,95132.30
2018-06-03T17:40:59.911Z,95124.36
2018-06-03T17:43:29.275Z,95124.80
2018-06-03T17:45:59.508Z,95121.84
2018-06-03T17:48:28.970Z,95122.14
2018-06-03T17:50:58.284Z,95118.11
2018-06-03T17:53:27.733Z,95117.48
2018-06-03T17:55:57.186Z,95117.02
2018-06-03T17:58:26.743Z,95115.87
2018-06-03T18:00:56.297Z,95111.34
2018-06-03T18:03:25.809Z,95113.72
2018-06-03T18:05:55.273Z,95111.47
2018-06-03T18:08:24.797Z,95111.80
2018-06-03T18:10:54.362Z,95105.52
2018-06-03T18:13:24.144Z,95108.58
2018-06-03T18:15:53.538Z,95109.42
2018-06-03T18:18:23.001Z,95101.28
2018-06-03T18:20:52.602Z,95098.42
2018-06-03T18:23:21.962Z,95094.76
2018-06-03T18:25:51.659Z,95102.48
2018-06-03T18:28:21.114Z,95099.06
2018-06-03T18:30:50.630Z,95098.48
2018-06-03T18:33:20.149Z,95099.52
2018-06-03T18:35:49.779Z,95091.55
2018-06-03T18:38:19.289Z,95094.64
2018-06-03T18:40:48.668Z,95087.57
2018-06-03T18:43:21.100Z,95085.64
2018-06-03T18:45:50.593Z,95087.86
2018-06-03T18:48:20.130Z,95087.30
2018-06-03T18:50:52.597Z,95088.28
2018-06-03T18:53:22.081Z,95086.30
2018-06-03T18:55:51.507Z,95087.86
2018-06-03T18:58:20.970Z,95084.44
2018-06-03T19:00:50.335Z,95090.83
2018-06-03T19:03:19.876Z,95091.33
2018-06-03T19:05:49.330Z,95091.84
2018-06-03T19:08:18.766Z,95094.27
2018-06-03T19:10:48.372Z,95095.81
2018-06-03T19:13:17.767Z,95100.73
2018-06-03T19:15:47.251Z,95103.48
2018-06-03T19:18:16.879Z,95101.11
2018-06-03T19:20:46.349Z,95100.31
2018-06-03T19:23:15.791Z,95101.92
2018-06-03T19:25:45.357Z,95102.89
2018-06-03T19:28:14.851Z,95102.34
2018-06-03T19:30:44.528Z,95109.63
2018-06-03T19:33:14.116Z,95110.70
2018-06-03T19:35:43.682Z,95108.49
2018-06-03T19:38:13.169Z,95112.30
2018-06-03T19:40:42.552Z,95117.61
2018-06-03T19:43:12.149Z,95118.41
2018-06-03T19:45:41.716Z,95120.69
2018-06-03T19:48:11.292Z,95122.30
2018-06-03T19:50:40.737Z,95119.05
2018-06-03T19:53:10.325Z,95115.16
2018-06-03T19:55:39.696Z,95113.34
2018-06-03T19:58:09.167Z,95115.81
2018-06-03T20:00:38.686Z,95122.77
2018-06-03T20:03:08.223Z,95118.91
2018-06-03T20:05:37.662Z,95118.36
2018-06-03T20:08:06.977Z,95120.52
2018-06-03T20:10:36.401Z,95117.80
2018-06-03T20:13:05.825Z,95114.45
2018-06-03T20:15:36.537Z,95116.09
2018-06-03T20:18:06.103Z,95115.27
2018-06-03T20:20:35.429Z,95114.00
2018-06-03T20:23:04.880Z,95111.53
2018-06-03T20:25:34.269Z,95113.20
2018-06-03T20:28:04.612Z,95112.19
2018-06-03T20:30:37.646Z,95113.13
2018-06-03T20:33:07.409Z,95115.28
2018-06-03T20:35:36.977Z,95108.20
2018-06-03T20:38:06.588Z,95112.71
2018-06-03T20:40:36.066Z,95117.12
2018-06-03T20:43:05.541Z,95120.80
2018-06-03T20:45:34.888Z,95117.99
2018-06-03T20:48:05.497Z,95123.66
2018-06-03T20:50:35.166Z,95123.75
2018-06-03T20:53:04.672Z,95127.14
2018-06-03T20:55:34.132Z,95131.83
2018-06-03T20:58:03.713Z,95128.23
2018-06-03T21:00:33.313Z,95134.41
2018-06-03T21:03:02.891Z,95132.91
2018-06-03T21:05:32.465Z,95137.50
2018-06-03T21:08:01.993Z,95139.81
2018-06-03T21:10:31.429Z,95131.13
2018-06-03T21:13:00.894Z,95135.00
2018-06-03T21:15:30.353Z,95128.15
2018-06-03T21:17:59.867Z,95121.48
2018-06-03T21:20:29.433Z,95126.94
2018-06-03T21:22:58.810Z,95126.19
2018-06-03T21:25:28.293Z,95128.22
2018-06-03T21:27:57.749Z,95129.08
2018-06-03T21:30:29.557Z,95126.27
2018-06-03T21:32:58.954Z,95123.35
2018-06-03T21:35:28.444Z,95122.66
2018-06-03T21:37:58.292Z,95125.39
2018-06-03T21:40:27.739Z,95129.25
2018-06-03T21:42:57.431Z,95130.25
2018-06-03T21:45:27.002Z,95128.80
2018-06-03T21:47:56.461Z,95124.17
2018-06-03T21:50:26.219Z,95123.45
2018-06-03T21:52:56.988Z,95123.22
2018-06-03T21:55:28.780Z,95119.52
2018-06-03T21:57:58.319Z,95117.12
2018-06-03T22:00:27.855Z,95119.38
2018-06-03T22:02:58.279Z,95117.97
2018-06-03T22:05:29.886Z,95119.16
2018-06-03T22:07:59.383Z,95117.19
2018-06-03T22:10:28.785Z,95117.25
2018-06-03T22:12:58.344Z,95122.23
2018-06-03T22:15:27.797Z,95118.55
2018-06-03T22:17:57.345Z,95120.58
2018-06-03T22:20:26.805Z,95114.77
2018-06-03T22:22:56.295Z,95117.78
2018-06-03T22:25:25.824Z,95115.55
2018-06-03T22:27:55.274Z,95121.44
2018-06-03T22:30:24.682Z,95119.73
2018-06-03T22:32:54.166Z,95113.17
2018-06-03T22:35:23.586Z,95112.02
2018-06-03T22:37:52.939Z,95109.54
2018-06-03T22:40:22.274Z,95107.78
2018-06-03T22:42:51.609Z,95112.51
2018-06-03T22:45:20.985Z,95103.56
2018-06-03T22:47:50.351Z,95108.88
2018-06-03T22:50:19.657Z,95108.25
2018-06-03T22:52:49.027Z,95105.11
2018-06-03T22:55:18.365Z,95099.61
2018-06-03T22:57:53.910Z,95097.54
2018-06-03T23:00:31.764Z,95097.87
2018-06-03T23:03:06.450Z,95090.89
2018-06-03T23:05:36.224Z,95086.98
2018-06-03T23:08:05.560Z,95082.83
2018-06-03T23:10:35.006Z,95086.73
2018-06-03T23:13:04.567Z,95083.03
2018-06-03T23:15:33.919Z,95080.84
2018-06-03T23:18:03.281Z,95077.66
2018-06-03T23:20:32.706Z,95079.31
2018-06-03T23:23:02.174Z,95080.47
2018-06-03T23:25:31.507Z,95075.19
2018-06-03T23:28:00.845Z,95074.17
2018-06-03T23:30:30.270Z,95073.08
2018-06-03T23:32:59.663Z,95071.37
2018-06-03T23:35:29.105Z,95067.32
2018-06-03T23:37:58.622Z,95068.80
2018-06-03T23:40:28.062Z,95069.48
2018-06-03T23:42:57.556Z,95062.23
2018-06-03T23:45:27.044Z,95061.84
2018-06-03T23:47:56.453Z,95051.51
2018-06-03T23:50:25.826Z,95047.80
2018-06-03T23:52:55.343Z,95047.02
2018-06-03T23:55:24.790Z,95053.00
2018-06-03T23:57:54.164Z,95049.11
